Time;durP1;ratioP1;P1;durP2;ratioP2;P2;SDS_P1;SDS_P2;PMS_P1;PMS_P2;Temp;Humidity;BMP_temperature;BMP_pressure;BME280_temperature;BME280_humidity;BME280_pressure;Samples;Min_cycle;Max_cycle;Signal;HPM_P1;HPM_P2
2024/04/23 00:01:30;;;;;;;5.97;5.47;;;6.70;91.10;;;;;;6757084;26;20453;-62
2024/04/23 00:04:50;;;;;;;5.90;5.40;;;6.70;91.90;;;;;;6769420;26;20596;-61
2024/04/23 00:07:53;;;;;;;7.90;7.10;;;6.80;92.40;;;;;;6759916;26;20476;-62
2024/04/23 00:11:01;;;;;;;7.00;6.30;;;7.00;92.60;;;;;;6756430;26;20545;-61
2024/04/23 00:14:09;;;;;;;6.50;5.80;;;7.10;93.40;;;;;;6779615;26;20578;-61
2024/04/23 00:17:23;;;;;;;5.70;5.20;;;7.10;94.30;;;;;;6799016;26;20460;-58
2024/04/23 00:20:36;;;;;;;6.33;5.67;;;7.10;95.00;;;;;;6770480;26;20489;-59
2024/04/23 00:23:41;;;;;;;6.13;5.50;;;7.00;95.70;;;;;;6768341;26;20464;-60
2024/04/23 00:26:56;;;;;;;6.40;5.80;;;7.10;96.40;;;;;;6802230;26;20476;-60
2024/04/23 00:30:07;;;;;;;5.67;5.23;;;7.20;96.20;;;;;;6768697;26;20581;-62
2024/04/23 00:33:29;;;;;;;6.40;5.60;;;7.20;97.80;;;;;;6756485;26;21102;-61
2024/04/23 00:36:38;;;;;;;8.03;6.63;;;7.20;97.80;;;;;;6777213;26;20621;-62
2024/04/23 00:39:44;;;;;;;5.70;5.20;;;7.20;97.70;;;;;;6801321;26;20562;-61
2024/04/23 00:42:56;;;;;;;5.50;5.00;;;7.20;98.10;;;;;;6828634;25;20580;-61
2024/04/23 00:46:17;;;;;;;6.60;5.97;;;7.30;98.60;;;;;;6756220;26;20580;-61
2024/04/23 00:49:35;;;;;;;7.50;6.80;;;7.30;99.50;;;;;;6776827;26;20531;-62
2024/04/23 00:52:40;;;;;;;8.93;7.23;;;7.40;99.90;;;;;;6801721;26;20540;-62
2024/04/23 00:56:01;;;;;;;9.23;6.77;;;7.40;99.90;;;;;;6801021;26;20574;-61
2024/04/23 00:59:13;;;;;;;7.37;6.67;;;7.40;99.90;;;;;;6796449;26;20584;-63
2024/04/23 01:02:27;;;;;;;7.37;6.67;;;7.40;99.90;;;;;;6800441;26;20958;-62
2024/04/23 01:05:46;;;;;;;7.60;6.80;;;7.40;99.90;;;;;;6800695;26;20594;-63
2024/04/23 01:09:02;;;;;;;7.00;6.37;;;7.40;99.90;;;;;;6797978;26;20586;-62
2024/04/23 01:12:08;;;;;;;9.73;8.00;;;7.40;99.90;;;;;;6800892;26;20585;-61
2024/04/23 01:15:26;;;;;;;8.17;7.33;;;7.40;99.90;;;;;;6800877;26;20784;-62
2024/04/23 01:18:38;;;;;;;10.90;8.07;;;7.40;99.90;;;;;;6799414;26;20480;-62
2024/04/23 01:21:59;;;;;;;9.13;7.40;;;7.40;99.90;;;;;;6801310;26;20448;-61
2024/04/23 01:25:10;;;;;;;8.93;7.83;;;7.30;99.90;;;;;;6767324;26;20474;-61
2024/04/23 01:28:22;;;;;;;8.20;7.50;;;7.30;99.90;;;;;;6756761;26;21095;-62
2024/04/23 01:31:31;;;;;;;8.80;7.90;;;7.30;99.90;;;;;;6751027;26;20584;-62
2024/04/23 01:34:45;;;;;;;8.23;7.27;;;7.20;99.90;;;;;;6755089;26;20552;-62
2024/04/23 01:37:57;;;;;;;9.23;8.20;;;7.10;99.90;;;;;;6754182;26;20481;-62
2024/04/23 01:41:06;;;;;;;9.10;8.20;;;6.90;99.90;;;;;;6791164;26;20510;-63
2024/04/23 01:44:31;;;;;;;10.23;8.53;;;6.80;99.90;;;;;;6800086;26;20503;-62
2024/04/23 01:47:37;;;;;;;10.17;9.20;;;6.70;99.90;;;;;;6798199;26;21069;-62
2024/04/23 01:50:51;;;;;;;10.30;9.20;;;6.60;99.90;;;;;;6798885;26;20553;-62
2024/04/23 01:53:57;;;;;;;12.33;10.07;;;6.60;99.90;;;;;;6799395;26;21020;-63
2024/04/23 01:57:18;;;;;;;11.10;9.50;;;6.60;99.90;;;;;;6799907;26;21283;-62
2024/04/23 02:00:38;;;;;;;9.67;8.77;;;6.50;99.90;;;;;;6799710;26;20526;-62
2024/04/23 02:03:49;;;;;;;11.87;9.10;;;6.50;99.90;;;;;;6800790;26;20583;-62
2024/04/23 02:06:56;;;;;;;12.03;9.40;;;6.50;99.90;;;;;;6800336;26;21058;-61
2024/04/23 02:10:10;;;;;;;10.90;9.47;;;6.50;99.90;;;;;;6799543;26;20460;-61
2024/04/23 02:13:14;;;;;;;10.00;9.00;;;6.50;99.90;;;;;;6800391;26;20585;-61
2024/04/23 02:16:30;;;;;;;8.97;8.10;;;6.40;99.90;;;;;;6800076;26;20456;-61
2024/04/23 02:19:34;;;;;;;9.00;8.10;;;6.40;99.90;;;;;;6800185;26;20472;-61
2024/04/23 02:22:40;;;;;;;8.80;7.90;;;6.40;99.90;;;;;;6799044;26;20496;-61
2024/04/23 02:25:48;;;;;;;8.50;7.60;;;6.40;99.90;;;;;;6799702;26;20463;-62
2024/04/23 02:28:59;;;;;;;8.10;7.00;;;6.40;99.90;;;;;;6799423;26;20720;-63
2024/04/23 02:32:18;;;;;;;8.60;7.37;;;6.30;99.90;;;;;;6804207;26;21369;-60
2024/04/23 02:35:27;;;;;;;6.80;6.13;;;6.40;99.90;;;;;;6803480;26;20452;-61
2024/04/23 02:38:33;;;;;;;8.13;7.00;;;6.30;99.90;;;;;;6803538;26;20464;-61
2024/04/23 02:41:51;;;;;;;8.27;7.10;;;6.30;99.90;;;;;;6804135;26;20843;-61
2024/04/23 02:45:01;;;;;;;9.77;8.07;;;6.30;99.90;;;;;;6804506;26;20582;-61
2024/04/23 02:48:12;;;;;;;9.93;8.10;;;6.20;99.90;;;;;;6805303;26;20763;-62
2024/04/23 02:51:33;;;;;;;7.83;6.90;;;6.20;99.90;;;;;;6805874;26;20464;-63
2024/04/23 02:54:52;;;;;;;8.30;7.50;;;6.10;99.90;;;;;;6806351;26;20471;-62
2024/04/23 02:57:59;;;;;;;7.33;6.53;;;6.00;99.90;;;;;;6805504;26;20508;-62
2024/04/23 03:01:04;;;;;;;7.70;6.90;;;6.00;99.90;;;;;;6805110;26;20476;-61
2024/04/23 03:04:17;;;;;;;9.70;8.80;;;6.00;99.90;;;;;;6803718;26;21383;-61
2024/04/23 03:07:21;;;;;;;8.10;6.63;;;6.00;99.90;;;;;;6804732;26;20452;-62
2024/04/23 03:10:35;;;;;;;8.20;6.30;;;6.00;99.90;;;;;;6803304;26;21076;-62
2024/04/23 03:13:41;;;;;;;8.70;6.77;;;6.00;99.90;;;;;;6805212;26;20440;-63
2024/04/23 03:16:51;;;;;;;8.00;7.20;;;5.90;99.90;;;;;;6778746;26;21022;-63
2024/04/23 03:20:10;;;;;;;8.47;6.90;;;5.90;99.90;;;;;;6759259;26;20533;-63
2024/04/23 03:23:15;;;;;;;7.40;6.70;;;5.90;99.90;;;;;;6770391;26;20531;-62
2024/04/23 03:26:22;;;;;;;8.47;6.80;;;5.90;99.90;;;;;;6803639;26;20897;-62
2024/04/23 03:29:30;;;;;;;7.63;6.93;;;5.90;99.90;;;;;;6804311;26;20460;-63
2024/04/23 03:32:37;;;;;;;7.60;6.80;;;6.00;99.90;;;;;;6812129;26;20472;-62
2024/04/23 03:35:47;;;;;;;7.77;7.00;;;6.00;99.90;;;;;;6806001;26;20873;-62
2024/04/23 03:42:15;;;;;;;10.57;9.37;;;6.00;99.90;;;;;;6804593;26;20988;-62
2024/04/23 03:45:30;;;;;;;8.07;7.27;;;6.10;99.90;;;;;;6804717;26;20464;-62
2024/04/23 03:48:40;;;;;;;8.77;7.40;;;6.10;99.90;;;;;;6803621;26;20594;-62
2024/04/23 03:51:50;;;;;;;8.53;7.67;;;6.10;99.90;;;;;;6804086;26;20456;-63
2024/04/23 03:55:06;;;;;;;8.37;6.70;;;6.10;99.90;;;;;;6804089;26;20523;-63
2024/04/23 03:58:11;;;;;;;8.93;8.03;;;6.10;99.90;;;;;;6802799;26;20884;-63
2024/04/23 04:01:23;;;;;;;7.93;7.13;;;6.10;99.90;;;;;;6803559;26;20479;-62
2024/04/23 04:08:18;;;;;;;7.77;7.07;;;6.10;99.90;;;;;;6803642;26;20472;-62
2024/04/23 04:11:31;;;;;;;8.57;7.77;;;6.20;99.90;;;;;;6803139;26;20658;-62
2024/04/23 04:14:42;;;;;;;8.80;7.90;;;6.10;99.90;;;;;;6760026;26;20501;-62
2024/04/23 04:17:50;;;;;;;8.20;7.40;;;6.10;99.90;;;;;;6758542;26;20469;-63
2024/04/23 04:20:55;;;;;;;7.47;6.73;;;6.20;99.90;;;;;;6758464;26;20596;-63
2024/04/23 04:24:08;;;;;;;9.30;8.40;;;6.10;99.90;;;;;;6757389;26;20536;-63
2024/04/23 04:27:16;;;;;;;9.17;7.03;;;6.20;99.90;;;;;;6760467;26;20469;-62
2024/04/23 04:30:20;;;;;;;8.30;7.50;;;6.20;99.90;;;;;;6801761;26;21295;-65
2024/04/23 04:33:27;;;;;;;9.43;8.37;;;6.10;99.90;;;;;;6802692;26;21038;-62
2024/04/23 04:36:34;;;;;;;7.90;7.20;;;5.90;99.90;;;;;;6801186;26;21028;-61
2024/04/23 04:39:45;;;;;;;8.00;7.20;;;5.90;99.90;;;;;;6800545;26;20599;-62
2024/04/23 04:42:56;;;;;;;7.90;7.20;;;6.00;99.90;;;;;;6802715;26;20508;-63
2024/04/23 04:46:08;;;;;;;8.30;7.50;;;6.10;99.90;;;;;;6802695;26;20444;-63
2024/04/23 04:49:10;;;;;;;7.80;7.10;;;6.10;99.90;;;;;;6803137;26;20785;-62
2024/04/23 04:52:17;;;;;;;8.13;7.30;;;6.20;99.90;;;;;;6799196;26;20779;-62
2024/04/23 04:55:40;;;;;;;7.60;6.90;;;6.30;99.90;;;;;;6801873;26;20456;-63
2024/04/23 04:58:50;;;;;;;8.90;7.93;;;6.40;99.90;;;;;;6802764;26;20460;-62
2024/04/23 05:01:57;;;;;;;8.20;6.87;;;6.30;99.90;;;;;;6800461;26;20539;-63
2024/04/23 05:05:08;;;;;;;9.37;8.50;;;6.40;99.90;;;;;;6802524;26;20460;-63
2024/04/23 05:08:14;;;;;;;7.20;6.60;;;6.50;99.90;;;;;;6795183;26;20473;-63
2024/04/23 05:11:39;;;;;;;6.97;6.27;;;6.50;99.90;;;;;;6756637;26;20517;-62
2024/04/23 05:14:44;;;;;;;8.17;7.37;;;6.50;99.90;;;;;;6753303;26;20437;-62
2024/04/23 05:17:51;;;;;;;8.53;7.73;;;6.50;99.90;;;;;;6753766;26;21342;-63
2024/04/23 05:20:59;;;;;;;8.50;7.80;;;6.60;99.90;;;;;;6753516;26;20559;-62
2024/04/23 05:24:17;;;;;;;7.70;6.90;;;6.60;99.90;;;;;;6767612;26;20460;-62
2024/04/23 05:27:41;;;;;;;8.67;7.80;;;6.70;99.90;;;;;;6801119;26;20917;-62
2024/04/23 05:34:32;;;;;;;8.17;7.47;;;6.80;99.90;;;;;;6799485;26;20468;-62
2024/04/23 05:37:39;;;;;;;8.70;7.80;;;6.80;99.90;;;;;;6800216;26;20469;-61
2024/04/23 05:40:46;;;;;;;8.10;7.30;;;6.50;99.90;;;;;;6801309;26;20472;-63
2024/04/23 05:44:04;;;;;;;8.80;7.60;;;6.60;99.90;;;;;;6800414;26;20595;-62
2024/04/23 05:47:11;;;;;;;8.23;6.90;;;6.50;99.90;;;;;;6801196;26;20463;-62
2024/04/23 05:51:07;;;;;;;8.97;7.97;;;6.40;99.90;;;;;;6793089;26;20524;-62
2024/04/23 05:54:56;;;;;;;9.27;8.20;;;6.40;99.90;;;;;;6800950;26;20962;-62
2024/04/23 05:57:59;;;;;;;8.93;8.03;;;6.20;99.90;;;;;;6800201;26;20567;-62
2024/04/23 06:01:14;;;;;;;9.00;7.53;;;6.30;99.90;;;;;;6798592;26;20460;-62
2024/04/23 06:04:23;;;;;;;7.63;6.83;;;6.40;99.90;;;;;;6798491;26;20512;-64
2024/04/23 06:07:38;;;;;;;7.97;7.17;;;6.30;99.90;;;;;;6794869;26;20531;-62
2024/04/23 06:10:46;;;;;;;9.10;8.20;;;6.20;99.90;;;;;;6798316;26;20923;-63
2024/04/23 06:14:02;;;;;;;8.17;7.37;;;6.20;99.90;;;;;;6795364;26;20468;-63
2024/04/23 06:17:35;;;;;;;9.10;7.90;;;6.30;99.90;;;;;;6754531;26;20501;-63
2024/04/23 06:21:00;;;;;;;8.47;7.37;;;6.10;99.90;;;;;;6786230;26;20525;-63
2024/04/23 06:24:09;;;;;;;9.23;8.23;;;6.20;99.90;;;;;;6799643;26;20554;-63
2024/04/23 06:27:12;;;;;;;8.97;8.07;;;6.20;99.90;;;;;;6799276;26;20520;-62
2024/04/23 06:30:21;;;;;;;8.40;7.60;;;6.40;99.90;;;;;;6795559;26;20552;-62
2024/04/23 06:33:37;;;;;;;9.70;8.33;;;6.50;99.90;;;;;;6748682;26;20501;-62
2024/04/23 06:36:45;;;;;;;8.80;7.73;;;6.60;99.90;;;;;;6799519;26;20533;-63
2024/04/23 06:39:51;;;;;;;8.90;8.00;;;6.70;99.90;;;;;;6789342;26;21213;-62
2024/04/23 06:43:04;;;;;;;8.37;7.67;;;6.70;99.90;;;;;;6765076;26;21107;-62
2024/04/23 06:46:17;;;;;;;9.17;8.17;;;6.80;99.90;;;;;;6771162;26;20631;-62
2024/04/23 06:49:35;;;;;;;8.17;7.37;;;6.90;99.90;;;;;;6753893;26;20513;-64
2024/04/23 06:52:45;;;;;;;8.37;7.57;;;7.10;99.90;;;;;;6752858;26;21033;-63
2024/04/23 06:55:54;;;;;;;8.07;7.27;;;7.30;99.90;;;;;;6753482;26;20619;-63
2024/04/23 06:58:59;;;;;;;8.73;7.33;;;7.40;99.90;;;;;;6761215;26;20476;-62
2024/04/23 07:02:16;;;;;;;8.00;7.30;;;7.50;99.90;;;;;;6776502;26;20524;-61
2024/04/23 07:05:32;;;;;;;8.27;7.47;;;7.60;99.90;;;;;;6792435;26;20827;-64
2024/04/23 07:08:38;;;;;;;8.87;6.83;;;7.70;99.90;;;;;;6793197;26;20457;-62
2024/04/23 07:11:55;;;;;;;7.10;6.40;;;7.60;99.90;;;;;;6796856;26;20473;-62
2024/04/23 07:15:01;;;;;;;6.70;6.10;;;7.70;99.90;;;;;;6784980;26;20448;-63
2024/04/23 07:18:11;;;;;;;7.90;7.17;;;7.80;99.90;;;;;;6799824;26;20922;-62
2024/04/23 07:21:19;;;;;;;8.10;6.57;;;8.00;99.90;;;;;;6808501;26;20466;-63
2024/04/23 07:24:28;;;;;;;7.93;7.17;;;8.10;99.90;;;;;;6792240;26;20665;-62
2024/04/23 07:27:35;;;;;;;7.77;7.13;;;8.30;99.90;;;;;;6801331;26;20511;-62
2024/04/23 07:30:42;;;;;;;7.43;6.80;;;8.40;99.90;;;;;;6768331;26;20520;-66
2024/04/23 07:33:50;;;;;;;7.00;6.40;;;8.40;99.90;;;;;;6781257;26;20607;-63
2024/04/23 07:37:00;;;;;;;7.50;6.87;;;8.50;99.90;;;;;;6767201;26;20457;-64
2024/04/23 07:40:08;;;;;;;7.30;6.43;;;8.70;99.90;;;;;;6740810;26;20482;-63
2024/04/23 07:43:14;;;;;;;6.40;5.50;;;8.70;99.90;;;;;;6752367;26;20493;-63
2024/04/23 07:46:26;;;;;;;6.67;6.17;;;8.80;99.90;;;;;;6755308;26;20461;-63
2024/04/23 07:49:32;;;;;;;6.87;6.37;;;8.90;99.90;;;;;;6747609;26;20544;-63
2024/04/23 07:52:56;;;;;;;7.53;6.83;;;9.00;99.90;;;;;;6755485;26;20557;-63
2024/04/23 07:56:00;;;;;;;7.90;7.03;;;9.20;99.90;;;;;;6753745;26;20460;-62
2024/04/23 07:59:17;;;;;;;7.00;5.83;;;9.40;99.90;;;;;;6756151;26;20522;-61
2024/04/23 08:02:29;;;;;;;6.90;6.30;;;9.70;99.90;;;;;;6754849;26;21066;-61
2024/04/23 08:05:33;;;;;;;6.83;5.80;;;10.00;99.90;;;;;;6755913;26;20573;-62
2024/04/23 08:08:53;;;;;;;6.20;5.60;;;10.30;99.90;;;;;;6755262;26;21349;-63
2024/04/23 08:11:59;;;;;;;5.57;5.07;;;10.70;99.90;;;;;;6756026;26;20576;-62
2024/04/23 08:15:14;;;;;;;5.23;4.73;;;11.00;99.90;;;;;;6751106;26;20568;-62
2024/04/23 08:18:25;;;;;;;5.07;4.57;;;11.10;99.00;;;;;;6755334;26;20546;-62
2024/04/23 08:21:36;;;;;;;5.57;5.07;;;11.10;98.20;;;;;;6756068;26;20489;-64
2024/04/23 08:24:53;;;;;;;6.03;5.40;;;11.20;98.40;;;;;;6755809;26;20521;-63
2024/04/23 08:28:08;;;;;;;5.33;4.83;;;11.30;98.00;;;;;;6754609;26;20509;-63
2024/04/23 08:31:14;;;;;;;5.07;4.57;;;11.20;96.60;;;;;;6757062;26;20740;-62
2024/04/23 08:34:33;;;;;;;5.50;4.97;;;11.20;96.70;;;;;;6753039;26;20569;-62
2024/04/23 08:37:40;;;;;;;4.80;4.40;;;11.10;97.40;;;;;;6772067;26;21058;-62
2024/04/23 08:40:59;;;;;;;4.90;4.50;;;11.10;96.80;;;;;;6781236;26;20930;-63
2024/04/23 08:44:07;;;;;;;4.67;4.27;;;11.10;96.60;;;;;;6779125;26;21151;-62
2024/04/23 08:47:20;;;;;;;4.80;4.30;;;11.40;96.80;;;;;;6797357;26;20480;-62
2024/04/23 08:50:28;;;;;;;4.77;4.37;;;11.60;96.30;;;;;;6801084;26;20460;-63
2024/04/23 08:53:36;;;;;;;3.87;3.57;;;11.70;94.80;;;;;;6789954;26;21328;-65
2024/04/23 08:56:51;;;;;;;4.43;4.03;;;11.80;94.50;;;;;;6788346;26;20453;-62
2024/04/23 09:00:03;;;;;;;4.70;4.30;;;11.90;94.70;;;;;;6800375;26;20602;-62
2024/04/23 09:03:14;;;;;;;4.80;4.40;;;12.00;93.50;;;;;;6793594;26;21047;-62
2024/04/23 09:06:23;;;;;;;4.43;4.03;;;12.10;93.60;;;;;;6785604;26;21328;-63
2024/04/23 09:09:29;;;;;;;4.27;3.87;;;12.10;92.80;;;;;;6790117;26;20543;-62
2024/04/23 09:12:46;;;;;;;4.23;3.83;;;12.00;92.80;;;;;;6792396;26;20645;-64
2024/04/23 09:15:53;;;;;;;4.60;4.20;;;12.10;93.60;;;;;;6766052;26;20476;-62
2024/04/23 09:19:00;;;;;;;4.10;3.70;;;12.10;92.20;;;;;;6789472;26;20485;-62
2024/04/23 09:22:04;;;;;;;3.87;3.57;;;12.10;92.90;;;;;;6760335;26;20779;-61
2024/04/23 09:25:17;;;;;;;4.20;3.83;;;12.20;93.30;;;;;;6787052;26;20480;-62
2024/04/23 09:28:43;;;;;;;4.53;4.13;;;12.30;93.20;;;;;;6798850;26;20452;-64
2024/04/23 09:31:54;;;;;;;5.10;4.60;;;12.50;92.80;;;;;;6797010;26;21012;-62
2024/04/23 09:35:04;;;;;;;5.07;4.57;;;12.60;91.60;;;;;;6782469;26;21136;-62
2024/04/23 09:38:21;;;;;;;4.57;3.93;;;12.70;91.40;;;;;;6788837;26;20484;-60
2024/04/23 09:41:26;;;;;;;5.93;5.40;;;12.70;91.40;;;;;;6778202;26;20985;-64
2024/04/23 09:44:42;;;;;;;4.80;4.40;;;12.90;91.30;;;;;;6799820;26;20531;-63
2024/04/23 09:47:50;;;;;;;4.80;4.40;;;13.00;90.70;;;;;;6754544;26;20449;-62
2024/04/23 09:51:08;;;;;;;4.13;3.43;;;13.00;90.20;;;;;;6774488;26;20472;-63
2024/04/23 09:54:13;;;;;;;3.40;3.03;;;13.10;90.00;;;;;;6798559;26;20509;-61
2024/04/23 09:57:23;;;;;;;3.87;3.43;;;13.00;88.00;;;;;;6775301;26;20466;-62
2024/04/23 10:00:47;;;;;;;4.33;3.93;;;13.10;89.10;;;;;;6775697;26;20492;-62
2024/04/23 10:04:02;;;;;;;3.43;3.13;;;13.20;88.80;;;;;;6777425;26;21127;-61
2024/04/23 10:07:15;;;;;;;3.70;3.40;;;13.40;87.90;;;;;;6794396;26;20468;-62
2024/04/23 10:10:31;;;;;;;4.27;3.87;;;13.70;88.80;;;;;;6814079;26;20514;-61
2024/04/23 10:13:50;;;;;;;3.37;3.07;;;14.10;86.70;;;;;;6769061;26;20997;-62
2024/04/23 10:17:23;;;;;;;3.00;2.80;;;13.80;84.20;;;;;;6799747;26;20584;-61
2024/04/23 10:20:38;;;;;;;4.13;3.53;;;13.60;85.60;;;;;;6845011;26;20470;-63
2024/04/23 10:23:46;;;;;;;3.00;2.80;;;13.70;85.50;;;;;;6789381;25;20469;-61
2024/04/23 10:26:57;;;;;;;3.10;2.90;;;13.80;85.20;;;;;;6753293;26;20477;-62
2024/04/23 10:30:11;;;;;;;2.60;2.40;;;14.00;83.10;;;;;;6799779;26;20468;-60
2024/04/23 10:33:30;;;;;;;3.40;3.10;;;14.20;82.80;;;;;;6780613;26;21024;-61
2024/04/23 10:36:39;;;;;;;3.20;3.00;;;14.80;80.60;;;;;;6796121;26;20529;-60
2024/04/23 10:39:52;;;;;;;3.10;2.73;;;15.20;77.10;;;;;;6796303;26;21192;-61
2024/04/23 10:42:57;;;;;;;3.40;3.10;;;15.30;77.10;;;;;;6795786;26;21005;-63
2024/04/23 10:46:07;;;;;;;3.43;3.10;;;15.00;74.60;;;;;;6768871;26;20468;-63
2024/04/23 10:49:24;;;;;;;3.60;3.33;;;14.80;75.90;;;;;;6791358;26;20528;-63
2024/04/23 10:52:34;;;;;;;3.20;2.90;;;14.50;75.40;;;;;;6757519;26;20477;-63
2024/04/23 10:55:54;;;;;;;3.83;3.37;;;14.30;74.90;;;;;;6770642;26;20599;-63
2024/04/23 10:59:05;;;;;;;3.37;3.07;;;14.20;76.00;;;;;;6771131;26;20466;-63
2024/04/23 11:02:14;;;;;;;4.17;3.10;;;14.00;77.00;;;;;;6798984;26;20527;-62
2024/04/23 11:05:35;;;;;;;4.50;4.10;;;13.80;78.20;;;;;;6787515;26;20585;-62
2024/04/23 11:08:53;;;;;;;3.67;3.37;;;13.50;79.20;;;;;;6799739;26;20467;-64
2024/04/23 11:11:56;;;;;;;3.30;3.10;;;13.40;79.20;;;;;;6773525;26;21308;-62
2024/04/23 11:15:04;;;;;;;4.80;3.30;;;13.20;79.90;;;;;;6782382;26;21010;-64
2024/04/23 11:18:20;;;;;;;3.70;3.40;;;13.10;80.10;;;;;;6778211;26;20468;-62
2024/04/23 11:21:45;;;;;;;3.17;2.97;;;13.00;80.40;;;;;;6795454;26;20833;-63
2024/04/23 11:24:54;;;;;;;2.90;2.70;;;12.90;80.10;;;;;;6776835;26;20480;-65
2024/04/23 11:28:13;;;;;;;4.53;4.13;;;12.80;80.40;;;;;;6790128;26;20864;-64
2024/04/23 11:31:25;;;;;;;4.20;3.80;;;12.80;81.80;;;;;;6796326;26;20484;-64
2024/04/23 11:34:30;;;;;;;8.27;6.10;;;12.80;82.70;;;;;;6780759;26;20472;-62
2024/04/23 11:37:57;;;;;;;20.27;13.50;;;12.90;83.30;;;;;;6786191;26;20540;-61
2024/04/23 11:41:21;;;;;;;39.60;21.80;;;12.90;84.50;;;;;;6785081;26;20547;-62
2024/04/23 11:44:30;;;;;;;22.57;15.73;;;13.00;85.10;;;;;;6799546;26;20548;-61
2024/04/23 11:47:35;;;;;;;24.63;13.20;;;12.90;85.20;;;;;;6762580;26;20536;-60
2024/04/23 11:50:44;;;;;;;9.03;8.03;;;12.80;88.00;;;;;;6762060;26;20603;-61
2024/04/23 11:53:57;;;;;;;8.13;7.53;;;12.90;90.10;;;;;;6790989;26;20473;-61
2024/04/23 11:57:01;;;;;;;7.20;6.57;;;13.00;91.00;;;;;;6775727;26;21134;-61
2024/04/23 12:00:11;;;;;;;6.40;5.80;;;12.90;91.50;;;;;;6780395;26;20493;-61
2024/04/23 12:03:16;;;;;;;8.63;7.93;;;13.00;92.00;;;;;;6761109;26;20943;-60
2024/04/23 12:06:35;;;;;;;7.63;6.93;;;13.10;91.30;;;;;;6778233;26;20479;-61
2024/04/23 12:09:54;;;;;;;5.93;5.47;;;13.00;89.70;;;;;;6765817;26;21235;-62
2024/04/23 12:13:06;;;;;;;6.70;6.00;;;13.00;88.70;;;;;;6794383;26;20918;-62
2024/04/23 12:16:14;;;;;;;6.50;6.00;;;13.10;88.20;;;;;;6761615;26;21009;-61
2024/04/23 12:19:20;;;;;;;6.10;5.60;;;13.00;90.40;;;;;;6801686;26;20467;-63
2024/04/23 12:22:25;;;;;;;6.40;5.80;;;13.00;91.40;;;;;;6802359;26;20451;-62
2024/04/23 12:25:40;;;;;;;5.50;5.10;;;12.90;91.50;;;;;;6802503;26;20464;-62
2024/04/23 12:28:47;;;;;;;6.10;5.60;;;12.70;91.80;;;;;;6801418;26;20523;-61
2024/04/23 12:32:03;;;;;;;7.57;6.70;;;12.50;92.80;;;;;;6801420;26;20459;-61
2024/04/23 12:35:06;;;;;;;5.73;5.33;;;12.50;93.90;;;;;;6801637;26;20456;-61
2024/04/23 12:38:27;;;;;;;5.87;5.37;;;12.40;93.90;;;;;;6796077;26;20531;-61
2024/04/23 12:41:45;;;;;;;5.60;4.90;;;12.40;94.10;;;;;;6801344;26;20528;-61
2024/04/23 12:44:54;;;;;;;4.80;4.40;;;12.30;94.90;;;;;;6799594;26;21177;-60
2024/04/23 12:47:59;;;;;;;5.90;5.27;;;12.20;94.60;;;;;;6800808;26;20586;-61
2024/04/23 12:51:13;;;;;;;5.27;4.87;;;12.00;94.20;;;;;;6800757;26;20547;-61
2024/04/23 12:54:22;;;;;;;6.30;5.77;;;11.80;93.60;;;;;;6792752;26;20728;-58
2024/04/23 12:57:32;;;;;;;7.37;6.67;;;11.70;93.80;;;;;;6781841;26;20472;-62
2024/04/23 13:00:42;;;;;;;6.30;5.70;;;11.60;95.60;;;;;;6798765;26;20476;-61
2024/04/23 13:03:53;;;;;;;6.13;5.63;;;11.50;95.90;;;;;;6769912;26;20485;-59
2024/04/23 13:06:58;;;;;;;6.30;5.63;;;11.20;95.00;;;;;;6786321;26;20511;-58
2024/04/23 13:10:05;;;;;;;4.50;4.10;;;11.00;97.10;;;;;;6800284;26;20460;-60
2024/04/23 13:13:17;;;;;;;4.60;4.20;;;10.80;97.50;;;;;;6802211;26;20594;-58
2024/04/23 13:16:32;;;;;;;4.50;4.10;;;10.80;97.60;;;;;;6801207;26;20472;-59
2024/04/23 13:19:52;;;;;;;3.97;3.40;;;10.80;97.30;;;;;;6800474;26;20480;-62
2024/04/23 13:23:06;;;;;;;4.27;3.87;;;10.80;97.90;;;;;;6798792;26;20689;-59
2024/04/23 13:26:11;;;;;;;4.90;4.50;;;10.90;97.70;;;;;;6799487;26;20391;-62
2024/04/23 13:29:30;;;;;;;4.80;4.40;;;11.00;98.90;;;;;;6799480;26;20339;-59
2024/04/23 13:32:40;;;;;;;4.70;4.17;;;11.20;99.10;;;;;;6800075;26;20582;-59
2024/04/23 13:35:46;;;;;;;5.57;4.93;;;11.30;99.10;;;;;;6797266;26;20488;-60
2024/04/23 13:42:18;;;;;;;4.70;4.30;;;11.10;97.20;;;;;;6797631;26;21366;-59
2024/04/23 13:45:30;;;;;;;5.33;4.93;;;11.00;97.90;;;;;;6754972;26;21372;-59
2024/04/23 13:48:34;;;;;;;5.20;3.93;;;10.90;97.60;;;;;;6755308;26;20505;-59
2024/04/23 13:51:41;;;;;;;4.90;4.50;;;10.80;98.10;;;;;;6779470;26;20472;-61
2024/04/23 13:54:45;;;;;;;4.00;3.70;;;10.70;99.10;;;;;;6799699;26;20467;-60
2024/04/23 14:01:23;;;;;;;4.47;4.07;;;10.50;99.30;;;;;;6799851;26;20583;-60
2024/04/23 14:04:33;;;;;;;5.07;4.57;;;10.50;99.40;;;;;;6799386;26;20476;-58
2024/04/23 14:07:43;;;;;;;5.70;5.20;;;10.50;99.70;;;;;;6799560;26;20651;-60
2024/04/23 14:10:46;;;;;;;5.63;4.67;;;10.50;99.90;;;;;;6798668;26;20472;-59
2024/04/23 14:13:54;;;;;;;5.43;4.13;;;10.60;99.90;;;;;;6799638;26;21401;-60
2024/04/23 14:17:10;;;;;;;5.40;4.90;;;10.60;99.60;;;;;;6799691;26;20475;-59
2024/04/23 14:20:16;;;;;;;5.83;5.13;;;10.60;99.60;;;;;;6799870;26;20530;-61
2024/04/23 14:23:26;;;;;;;6.20;5.23;;;10.50;99.60;;;;;;6798290;26;20520;-59
2024/04/23 14:26:35;;;;;;;6.43;4.93;;;10.50;99.50;;;;;;6790810;26;20463;-61
2024/04/23 14:29:40;;;;;;;5.97;5.30;;;10.50;99.20;;;;;;6799092;26;20479;-60
2024/04/23 14:32:57;;;;;;;5.80;5.20;;;10.50;98.70;;;;;;6797326;26;21463;-59
2024/04/23 14:36:03;;;;;;;5.97;5.40;;;10.40;99.00;;;;;;6799901;26;20515;-60
2024/04/23 14:39:13;;;;;;;5.07;4.57;;;10.40;99.10;;;;;;6787386;26;21144;-59
2024/04/23 14:42:19;;;;;;;5.00;4.47;;;10.30;98.90;;;;;;6754831;26;20552;-59
2024/04/23 14:45:27;;;;;;;6.67;4.57;;;10.30;98.70;;;;;;6754070;26;20461;-61
2024/04/23 14:48:38;;;;;;;5.10;4.60;;;10.40;99.20;;;;;;6789826;26;20468;-59
2024/04/23 14:51:55;;;;;;;5.03;4.60;;;10.40;99.40;;;;;;6799620;26;20501;-60
2024/04/23 14:55:04;;;;;;;5.60;5.10;;;10.50;99.60;;;;;;6791319;26;20552;-58
2024/04/23 14:58:13;;;;;;;4.87;4.37;;;10.30;99.90;;;;;;6754125;26;20464;-60
2024/04/23 15:01:16;;;;;;;5.57;5.17;;;10.20;99.90;;;;;;6793080;26;20460;-59
2024/04/23 15:04:27;;;;;;;5.23;4.83;;;10.20;99.90;;;;;;6797973;26;20452;-60
2024/04/23 15:07:34;;;;;;;6.83;6.13;;;10.30;99.90;;;;;;6776932;26;20472;-62
2024/04/23 15:10:43;;;;;;;6.50;6.00;;;10.30;99.90;;;;;;6756138;26;20465;-57
2024/04/23 15:13:56;;;;;;;5.67;5.10;;;10.20;99.90;;;;;;6753480;26;20466;-60
2024/04/23 15:17:02;;;;;;;6.13;5.40;;;10.20;99.90;;;;;;6771353;26;20480;-60
2024/04/23 15:20:16;;;;;;;5.63;4.80;;;10.20;99.90;;;;;;6768384;26;20477;-57
2024/04/23 15:23:30;;;;;;;7.10;5.00;;;10.20;99.90;;;;;;6798605;26;20666;-60
2024/04/23 15:26:37;;;;;;;5.50;5.00;;;10.10;99.90;;;;;;6798760;26;20578;-59
2024/04/23 15:29:43;;;;;;;5.63;5.13;;;10.10;99.90;;;;;;6793106;26;20471;-58
2024/04/23 15:32:47;;;;;;;5.00;4.57;;;10.10;99.90;;;;;;6788366;26;20480;-61
2024/04/23 15:36:19;;;;;;;4.83;4.40;;;9.90;99.90;;;;;;6797807;26;20464;-58
2024/04/23 15:39:38;;;;;;;6.27;5.70;;;9.70;99.90;;;;;;6756049;26;20522;-56
2024/04/23 15:42:48;;;;;;;5.93;5.37;;;9.50;99.90;;;;;;6747235;26;20909;-57
2024/04/23 15:45:52;;;;;;;6.60;6.00;;;9.50;99.90;;;;;;6733420;26;20477;-57
2024/04/23 15:49:00;;;;;;;5.80;5.30;;;9.50;99.90;;;;;;6751704;26;20473;-56
2024/04/23 15:52:13;;;;;;;5.33;4.93;;;9.50;99.90;;;;;;6742611;26;21395;-56
2024/04/23 15:55:20;;;;;;;6.00;5.40;;;9.40;99.90;;;;;;6757021;26;20458;-56
2024/04/23 15:58:27;;;;;;;6.60;5.70;;;9.30;99.90;;;;;;6751905;26;20795;-56
2024/04/23 16:01:36;;;;;;;5.47;5.00;;;9.30;99.90;;;;;;6737196;26;20518;-57
2024/04/23 16:04:41;;;;;;;7.07;6.03;;;9.30;99.90;;;;;;6758158;26;20521;-56
2024/04/23 16:07:50;;;;;;;5.87;5.30;;;9.40;99.90;;;;;;6693669;26;20457;-57
2024/04/23 16:11:04;;;;;;;8.00;5.40;;;9.50;99.90;;;;;;6712451;26;20518;-56
2024/04/23 16:14:16;;;;;;;7.63;6.13;;;9.50;99.90;;;;;;6742446;26;20564;-56
2024/04/23 16:17:20;;;;;;;6.80;6.10;;;9.50;99.90;;;;;;6734450;26;20542;-56
2024/04/23 16:20:30;;;;;;;6.23;5.73;;;9.50;99.90;;;;;;6717181;26;20813;-55
2024/04/23 16:23:44;;;;;;;7.50;6.80;;;9.40;99.90;;;;;;6727218;26;20551;-57
2024/04/23 16:26:52;;;;;;;8.00;6.83;;;9.40;99.90;;;;;;6738573;26;20483;-56
2024/04/23 16:29:55;;;;;;;12.33;9.50;;;9.40;99.90;;;;;;6710337;26;20479;-55
2024/04/23 16:33:05;;;;;;;8.90;6.80;;;9.20;99.90;;;;;;6739654;26;20459;-57
2024/04/23 16:36:14;;;;;;;7.43;6.70;;;9.20;99.90;;;;;;6743045;26;20501;-56
2024/04/23 16:39:26;;;;;;;8.70;7.80;;;9.20;99.90;;;;;;6800884;26;20476;-56
2024/04/23 16:42:34;;;;;;;9.40;8.40;;;9.10;99.90;;;;;;6765380;26;20465;-56
2024/04/23 16:45:46;;;;;;;10.30;8.23;;;9.00;99.90;;;;;;6753314;26;20453;-56
2024/04/23 16:48:49;;;;;;;9.50;8.17;;;9.00;99.90;;;;;;6785923;26;20541;-57
2024/04/23 16:52:08;;;;;;;7.60;6.83;;;8.90;99.90;;;;;;6782107;26;20464;-57
2024/04/23 16:55:20;;;;;;;6.80;5.90;;;8.70;99.90;;;;;;6809559;26;20483;-59
2024/04/23 16:58:26;;;;;;;9.27;5.63;;;8.50;99.90;;;;;;6791623;26;20590;-59
2024/04/23 17:01:41;;;;;;;6.13;5.57;;;8.40;99.90;;;;;;6794493;26;20852;-58